createdAt,value
2022-11-06T00:00:33.684Z,66.90
2022-11-06T00:03:02.292Z,66.78
2022-11-06T00:05:49.908Z,66.75
2022-11-06T00:08:27.973Z,66.64
2022-11-06T00:10:56.047Z,66.68
2022-11-06T00:13:23.833Z,66.63
2022-11-06T00:15:52.083Z,66.82
2022-11-06T00:18:19.960Z,66.81
2022-11-06T00:20:48.075Z,66.71
2022-11-06T00:23:16.081Z,66.86
2022-11-06T00:25:43.964Z,66.86
2022-11-06T00:28:12.024Z,66.76
2022-11-06T00:30:40.063Z,66.84
2022-11-06T00:33:10.952Z,66.93
2022-11-06T00:35:39.521Z,66.92
2022-11-06T00:38:07.755Z,66.96
2022-11-06T00:40:35.779Z,66.90
2022-11-06T00:43:04.232Z,67.05
2022-11-06T00:45:32.173Z,67.04
2022-11-06T00:48:00.234Z,67.14
2022-11-06T00:50:28.114Z,67.12
2022-11-06T00:52:56.189Z,66.93
2022-11-06T00:55:24.140Z,66.74
2022-11-06T00:57:52.394Z,66.73
2022-11-06T01:00:20.948Z,66.76
2022-11-06T01:02:49.138Z,66.61
2022-11-06T01:05:17.377Z,66.56
2022-11-06T01:07:45.239Z,66.59
2022-11-06T01:10:13.127Z,66.60
2022-11-06T01:12:41.195Z,66.39
2022-11-06T01:15:09.562Z,66.21
2022-11-06T01:17:37.414Z,66.13
2022-11-06T01:20:05.527Z,66.02
2022-11-06T01:22:33.357Z,66.07
2022-11-06T01:25:01.339Z,66.07
2022-11-06T01:27:29.246Z,65.99
2022-11-06T01:29:58.084Z,66.10
2022-11-06T01:32:25.908Z,65.98
2022-11-06T01:34:53.776Z,66.03
2022-11-06T01:37:21.654Z,66.07
2022-11-06T01:39:50.583Z,66.07
2022-11-06T01:42:21.140Z,65.98
2022-11-06T01:45:20.128Z,66.07
2022-11-06T01:47:48.884Z,66.06
2022-11-06T01:50:18.010Z,66.07
2022-11-06T01:52:49.255Z,66.12
2022-11-06T01:55:27.611Z,66.13
2022-11-06T01:57:57.023Z,66.35
2022-11-06T02:00:26.215Z,66.32
2022-11-06T02:02:55.673Z,66.44
2022-11-06T02:05:25.598Z,66.74
2022-11-06T02:07:56.264Z,66.74
2022-11-06T02:10:24.253Z,66.95
2022-11-06T02:13:01.136Z,66.99
2022-11-06T02:15:47.541Z,67.18
2022-11-06T02:18:48.948Z,67.19
2022-11-06T02:21:25.080Z,67.05
2022-11-06T02:24:28.007Z,67.27
2022-11-06T02:27:11.075Z,67.37
2022-11-06T02:30:03.294Z,67.16
2022-11-06T02:32:50.160Z,66.91
2022-11-06T02:35:33.718Z,67.00
2022-11-06T02:38:07.892Z,67.01
2022-11-06T02:40:39.026Z,67.04
2022-11-06T02:43:08.445Z,67.01
2022-11-06T02:45:47.711Z,66.98
2022-11-06T02:48:19.505Z,66.92
2022-11-06T02:50:49.767Z,67.03
2022-11-06T02:53:23.196Z,66.99
2022-11-06T02:55:58.090Z,67.19
2022-11-06T02:58:39.185Z,67.03
2022-11-06T03:01:16.247Z,66.94
2022-11-06T03:03:48.231Z,66.87
2022-11-06T03:06:26.313Z,66.66
2022-11-06T03:09:04.801Z,66.57
2022-11-06T03:11:41.102Z,66.37
2022-11-06T03:14:19.852Z,66.42
2022-11-06T03:17:00.580Z,66.44
2022-11-06T03:19:50.273Z,66.30
2022-11-06T03:22:24.100Z,66.43
2022-11-06T03:24:59.037Z,66.55
2022-11-06T03:27:44.413Z,66.62
2022-11-06T03:30:16.834Z,66.45
2022-11-06T03:32:59.175Z,66.52
2022-11-06T03:35:36.781Z,66.35
2022-11-06T03:38:10.665Z,66.27
2022-11-06T03:40:48.578Z,66.24
2022-11-06T03:43:22.696Z,66.19
2022-11-06T03:45:53.202Z,66.08
2022-11-06T03:48:33.798Z,66.06
2022-11-06T03:51:10.798Z,66.00
2022-11-06T03:53:44.774Z,65.96
2022-11-06T03:56:17.859Z,66.02
2022-11-06T03:58:48.659Z,65.95
2022-11-06T04:01:22.336Z,66.14
2022-11-06T04:03:53.283Z,66.21
2022-11-06T04:06:32.584Z,66.13
2022-11-06T04:09:22.680Z,66.29
2022-11-06T04:12:12.578Z,66.50
2022-11-06T04:14:42.590Z,66.71
2022-11-06T04:17:14.030Z,66.68
2022-11-06T04:19:49.904Z,66.39
2022-11-06T04:22:45.431Z,66.17
2022-11-06T04:25:52.076Z,65.93
2022-11-06T04:28:30.127Z,66.01
2022-11-06T04:31:12.379Z,65.95
2022-11-06T04:34:09.392Z,65.94
2022-11-06T04:36:54.450Z,65.93
2022-11-06T04:39:37.297Z,65.68
2022-11-06T04:42:40.087Z,65.53
2022-11-06T04:45:14.705Z,65.45
2022-11-06T04:47:43.989Z,65.47
2022-11-06T04:50:15.596Z,65.47
2022-11-06T04:52:45.177Z,65.39
2022-11-06T04:55:13.328Z,65.63
2022-11-06T04:57:41.325Z,65.72
2022-11-06T05:00:16.553Z,65.64
2022-11-06T05:02:44.407Z,65.74
2022-11-06T05:05:12.877Z,65.77
2022-11-06T05:07:42.017Z,65.72
2022-11-06T05:10:10.072Z,65.79
2022-11-06T05:12:38.937Z,65.73
2022-11-06T05:15:07.554Z,65.77
2022-11-06T05:17:36.649Z,65.80
2022-11-06T05:20:05.767Z,65.85
2022-11-06T05:22:52.157Z,65.95
2022-11-06T05:25:20.077Z,65.88
2022-11-06T05:27:47.975Z,65.95
2022-11-06T05:30:16.035Z,65.98
2022-11-06T05:32:43.966Z,66.06
2022-11-06T05:35:12.035Z,66.18
2022-11-06T05:37:39.938Z,66.07
2022-11-06T05:40:10.665Z,66.17
2022-11-06T05:42:39.887Z,66.23
2022-11-06T05:45:08.414Z,66.14
2022-11-06T05:47:36.476Z,65.98
2022-11-06T05:50:04.647Z,65.97
2022-11-06T05:52:35.214Z,65.90
2022-11-06T05:55:03.319Z,66.16
2022-11-06T05:57:31.212Z,66.09
2022-11-06T05:59:59.243Z,65.90
2022-11-06T06:02:27.386Z,66.08
2022-11-06T06:04:55.300Z,66.16
2022-11-06T06:07:23.742Z,66.17
2022-11-06T06:09:51.656Z,65.98
2022-11-06T06:12:19.691Z,65.75
2022-11-06T06:14:50.383Z,65.32
2022-11-06T06:17:18.984Z,65.44
2022-11-06T06:19:47.528Z,65.37
2022-11-06T06:22:15.669Z,65.23
2022-11-06T06:24:43.647Z,65.23
2022-11-06T06:27:11.751Z,65.06
2022-11-06T06:29:39.637Z,64.89
2022-11-06T06:32:07.589Z,64.87
2022-11-06T06:34:35.410Z,65.02
2022-11-06T06:37:03.281Z,65.00
2022-11-06T06:39:32.305Z,65.01
2022-11-06T06:42:00.096Z,64.88
2022-11-06T06:44:28.064Z,64.62
2022-11-06T06:46:56.331Z,64.41
2022-11-06T06:49:24.219Z,64.43
2022-11-06T06:51:52.080Z,64.24
2022-11-06T06:54:19.933Z,64.19
2022-11-06T06:56:48.333Z,64.17
2022-11-06T06:59:16.199Z,64.20
2022-11-06T07:01:44.344Z,64.23
2022-11-06T07:04:12.507Z,64.27
2022-11-06T07:06:40.234Z,64.06
2022-11-06T07:09:08.120Z,63.87
2022-11-06T07:11:36.027Z,63.90
2022-11-06T07:14:03.983Z,63.91
2022-11-06T07:16:32.564Z,63.72
2022-11-06T07:19:00.488Z,63.53
2022-11-06T07:21:28.449Z,63.30
2022-11-06T07:23:56.325Z,63.06
2022-11-06T07:26:24.323Z,62.84
2022-11-06T07:28:52.170Z,62.53
2022-11-06T07:31:20.079Z,62.22
2022-11-06T07:33:47.984Z,61.86
2022-11-06T07:36:16.051Z,61.72
2022-11-06T07:38:44.226Z,61.53
2022-11-06T07:41:14.964Z,61.41
2022-11-06T07:43:43.020Z,60.83
2022-11-06T07:46:12.573Z,59.97
2022-11-06T07:48:40.523Z,58.52
2022-11-06T07:51:11.119Z,56.63
2022-11-06T07:53:38.984Z,55.11
2022-11-06T07:56:08.747Z,54.18
2022-11-06T07:58:37.178Z,52.72
2022-11-06T08:01:05.065Z,51.23
2022-11-06T08:03:34.422Z,50.57
2022-11-06T08:06:05.098Z,49.30
2022-11-06T08:08:33.147Z,47.76
2022-11-06T08:11:09.620Z,47.09
2022-11-06T08:13:38.260Z,47.37
2022-11-06T08:16:09.040Z,47.90
2022-11-06T08:18:37.910Z,48.03
2022-11-06T08:21:07.124Z,47.84
2022-11-06T08:23:36.097Z,47.34
2022-11-06T08:26:05.835Z,47.17
2022-11-06T08:28:34.479Z,46.79
2022-11-06T08:31:09.207Z,46.39
2022-11-06T08:33:38.537Z,45.82
2022-11-06T08:36:09.085Z,44.26
2022-11-06T08:38:37.365Z,43.41
2022-11-06T08:41:09.526Z,43.34
2022-11-06T08:43:38.567Z,43.19
2022-11-06T08:46:08.587Z,43.56
2022-11-06T08:48:36.736Z,42.63
2022-11-06T08:51:05.911Z,41.80
2022-11-06T08:53:34.308Z,41.04
2022-11-06T08:56:04.321Z,39.85
2022-11-06T08:58:32.666Z,40.00
2022-11-06T09:01:00.869Z,39.36
2022-11-06T09:03:28.733Z,39.08
2022-11-06T09:05:56.753Z,38.99
2022-11-06T09:08:24.903Z,38.92
2022-11-06T09:10:58.122Z,39.01
2022-11-06T09:13:26.598Z,38.95
2022-11-06T09:15:54.549Z,38.57
2022-11-06T09:18:22.570Z,37.50
2022-11-06T09:20:55.229Z,36.68
2022-11-06T09:23:23.440Z,35.84
2022-11-06T09:25:51.539Z,35.25
2022-11-06T09:28:19.749Z,34.36
2022-11-06T09:30:47.763Z,33.78
2022-11-06T09:33:16.412Z,32.78
2022-11-06T09:35:44.700Z,32.18
2022-11-06T09:38:15.528Z,31.84
2022-11-06T09:40:59.321Z,31.76
2022-11-06T09:44:05.254Z,31.42
2022-11-06T09:46:45.024Z,30.79
2022-11-06T09:49:25.244Z,29.98
2022-11-06T09:52:13.230Z,29.63
2022-11-06T09:54:56.129Z,29.04
2022-11-06T09:58:10.309Z,28.62
2022-11-06T10:00:39.392Z,28.66
2022-11-06T10:03:18.248Z,28.41
2022-11-06T10:05:47.859Z,27.76
2022-11-06T10:08:30.592Z,27.22
2022-11-06T10:11:07.452Z,26.82
2022-11-06T10:14:09.253Z,26.47
2022-11-06T10:16:54.534Z,26.44
2022-11-06T10:19:45.631Z,26.13
2022-11-06T10:22:13.476Z,26.26
2022-11-06T10:24:46.198Z,26.69
2022-11-06T10:27:39.521Z,26.75
2022-11-06T10:30:17.052Z,27.00
2022-11-06T10:33:23.723Z,26.11
2022-11-06T10:36:03.725Z,25.02
2022-11-06T10:38:38.843Z,25.52
2022-11-06T10:41:20.206Z,25.25
2022-11-06T10:44:23.402Z,26.20
2022-11-06T10:47:18.390Z,27.47
2022-11-06T10:49:49.425Z,28.18
2022-11-06T10:52:35.534Z,28.84
2022-11-06T10:55:40.953Z,29.60
2022-11-06T10:58:11.359Z,29.71
2022-11-06T11:00:39.514Z,30.14
2022-11-06T11:03:19.469Z,30.44
2022-11-06T11:05:47.484Z,30.21
2022-11-06T11:08:44.592Z,30.33
2022-11-06T11:11:13.528Z,30.50
2022-11-06T11:13:43.559Z,30.09
2022-11-06T11:16:18.506Z,29.11
2022-11-06T11:18:46.938Z,27.77
2022-11-06T11:21:30.923Z,27.52
2022-11-06T11:24:11.830Z,27.33
2022-11-06T11:26:46.392Z,26.73
2022-11-06T11:29:22.393Z,25.95
2022-11-06T11:31:54.389Z,25.18
2022-11-06T11:34:27.051Z,24.75
2022-11-06T11:37:03.785Z,25.08
2022-11-06T11:39:34.652Z,25.34
2022-11-06T11:42:26.709Z,26.12
2022-11-06T11:45:07.247Z,26.85
2022-11-06T11:47:35.980Z,26.92
2022-11-06T11:50:22.249Z,26.82
2022-11-06T11:52:55.778Z,26.39
2022-11-06T11:55:28.266Z,26.77
2022-11-06T11:58:00.419Z,27.37
2022-11-06T12:00:29.184Z,28.04
2022-11-06T12:03:04.845Z,29.40
2022-11-06T12:05:40.037Z,30.24
2022-11-06T12:08:14.446Z,31.18
2022-11-06T12:10:44.255Z,31.78
2022-11-06T12:13:24.273Z,32.43
2022-11-06T12:16:08.736Z,32.69
2022-11-06T12:18:41.025Z,32.66
2022-11-06T12:21:20.021Z,32.86
2022-11-06T12:24:03.994Z,32.61
2022-11-06T12:26:43.376Z,31.09
2022-11-06T12:29:14.565Z,29.50
2022-11-06T12:31:53.850Z,28.50
2022-11-06T12:34:32.114Z,27.48
2022-11-06T12:37:18.507Z,26.66
2022-11-06T12:39:54.405Z,26.14
2022-11-06T12:42:25.233Z,25.60
2022-11-06T12:44:53.387Z,25.84
2022-11-06T12:47:53.139Z,26.33
2022-11-06T12:50:24.075Z,26.42
2022-11-06T12:53:00.914Z,26.94
2022-11-06T12:55:51.283Z,28.41
2022-11-06T12:58:25.184Z,29.66
2022-11-06T13:01:11.869Z,30.57
2022-11-06T13:04:01.491Z,31.80
2022-11-06T13:06:36.391Z,32.53
2022-11-06T13:09:09.262Z,33.09
2022-11-06T13:11:48.910Z,33.18
2022-11-06T13:14:32.403Z,33.51
2022-11-06T13:17:09.852Z,33.93
2022-11-06T13:19:54.613Z,34.28
2022-11-06T13:22:29.849Z,34.43
2022-11-06T13:25:20.888Z,34.93
2022-11-06T13:28:04.171Z,35.38
2022-11-06T13:30:34.727Z,35.58
2022-11-06T13:33:05.625Z,35.77
2022-11-06T13:35:37.246Z,36.01
2022-11-06T13:38:07.453Z,36.29
2022-11-06T13:40:44.326Z,36.48
2022-11-06T13:43:18.912Z,36.82
2022-11-06T13:45:56.818Z,37.21
2022-11-06T13:48:24.730Z,37.60
2022-11-06T13:51:06.969Z,37.94
2022-11-06T13:53:45.794Z,38.40
2022-11-06T13:56:31.918Z,38.41
2022-11-06T13:59:05.959Z,38.65
2022-11-06T14:01:55.353Z,38.69
2022-11-06T14:04:34.927Z,37.99
2022-11-06T14:07:04.354Z,37.17
2022-11-06T14:09:34.273Z,35.99
2022-11-06T14:12:10.042Z,34.85
2022-11-06T14:14:42.552Z,34.20
2022-11-06T14:17:16.358Z,34.22
2022-11-06T14:19:50.871Z,34.31
2022-11-06T14:22:38.387Z,34.43
2022-11-06T14:25:25.053Z,34.85
2022-11-06T14:27:52.835Z,35.11
2022-11-06T14:30:50.412Z,35.61
2022-11-06T14:33:49.275Z,36.16
2022-11-06T14:36:36.704Z,37.09
2022-11-06T14:39:10.301Z,37.93
2022-11-06T14:41:40.028Z,38.77
2022-11-06T14:44:23.100Z,39.47
2022-11-06T14:46:56.275Z,39.95
2022-11-06T14:49:46.382Z,40.64
2022-11-06T14:52:16.072Z,41.29
2022-11-06T14:54:59.448Z,41.88
2022-11-06T14:57:40.210Z,42.31
2022-11-06T15:00:14.175Z,42.70
2022-11-06T15:02:43.818Z,43.00
2022-11-06T15:05:19.455Z,43.61
2022-11-06T15:10:44.682Z,45.87
2022-11-06T15:13:18.934Z,46.59
2022-11-06T15:15:52.586Z,47.46
2022-11-06T15:18:23.729Z,48.32
2022-11-06T15:20:53.568Z,48.32
2022-11-06T15:23:26.977Z,48.75
2022-11-06T15:26:25.535Z,49.47
2022-11-06T15:28:59.514Z,50.11
2022-11-06T15:31:29.171Z,50.73
2022-11-06T15:34:05.651Z,50.79
2022-11-06T15:36:39.880Z,51.20
2022-11-06T15:39:38.149Z,51.06
2022-11-06T15:42:14.247Z,51.46
2022-11-06T15:44:44.601Z,51.35
2022-11-06T15:47:26.235Z,51.79
2022-11-06T15:50:12.500Z,52.39
2022-11-06T15:52:40.970Z,52.43
2022-11-06T15:55:13.318Z,52.71
2022-11-06T15:57:41.889Z,53.18
2022-11-06T16:00:20.961Z,53.32
2022-11-06T16:02:50.598Z,53.84
2022-11-06T16:05:21.610Z,54.24
2022-11-06T16:07:50.097Z,54.62
2022-11-06T16:10:20.973Z,54.76
2022-11-06T16:12:51.129Z,54.90
2022-11-06T16:15:37.696Z,54.94
2022-11-06T16:18:09.116Z,55.00
2022-11-06T16:20:37.235Z,54.71
2022-11-06T16:23:05.928Z,54.72
2022-11-06T16:25:33.747Z,54.99
2022-11-06T16:28:01.575Z,54.98
2022-11-06T16:30:33.638Z,54.99
2022-11-06T16:33:04.178Z,55.18
2022-11-06T16:35:35.777Z,55.15
2022-11-06T16:38:39.235Z,55.13
2022-11-06T16:41:04.243Z,55.54
2022-11-06T16:43:32.561Z,55.47
2022-11-06T16:46:08.325Z,55.25
2022-11-06T16:48:40.617Z,55.15
2022-11-06T16:51:10.813Z,55.11
2022-11-06T16:53:56.469Z,55.19
2022-11-06T16:56:35.195Z,55.61
2022-11-06T16:59:07.659Z,55.54
2022-11-06T17:01:43.008Z,55.59
2022-11-06T17:04:30.129Z,55.52
2022-11-06T17:06:58.760Z,55.50
2022-11-06T17:09:30.343Z,55.36
2022-11-06T17:12:00.788Z,55.25
2022-11-06T17:14:28.986Z,55.13
2022-11-06T17:16:59.512Z,55.15
2022-11-06T17:19:28.559Z,55.11
2022-11-06T17:21:56.733Z,55.20
2022-11-06T17:24:36.621Z,55.42
2022-11-06T17:27:05.613Z,55.31
2022-11-06T17:29:36.296Z,55.40
2022-11-06T17:32:04.884Z,55.49
2022-11-06T17:34:32.773Z,55.44
2022-11-06T17:37:00.788Z,55.48
2022-11-06T17:39:28.817Z,55.60
2022-11-06T17:41:56.726Z,55.57
2022-11-06T17:44:24.581Z,55.50
2022-11-06T17:46:52.526Z,55.61
2022-11-06T17:49:20.451Z,55.57
2022-11-06T17:52:00.417Z,55.82
2022-11-06T17:54:34.231Z,55.91
2022-11-06T17:57:02.946Z,56.15
2022-11-06T17:59:31.653Z,56.07
2022-11-06T18:01:59.865Z,56.20
2022-11-06T18:04:31.226Z,56.28
2022-11-06T18:06:59.212Z,56.44
2022-11-06T18:09:27.244Z,56.50
2022-11-06T18:11:55.736Z,56.59
2022-11-06T18:14:24.430Z,56.84
2022-11-06T18:16:53.138Z,56.83
2022-11-06T18:19:23.514Z,56.92
2022-11-06T18:21:51.668Z,57.09
2022-11-06T18:24:19.555Z,57.06
2022-11-06T18:26:47.519Z,57.26
2022-11-06T18:29:15.742Z,57.63
2022-11-06T18:31:43.854Z,58.05
2022-11-06T18:34:20.634Z,58.35
2022-11-06T18:36:50.849Z,59.05
2022-11-06T18:39:19.666Z,59.04
2022-11-06T18:41:48.612Z,59.40
2022-11-06T18:44:18.094Z,59.42
2022-11-06T18:46:47.137Z,59.41
2022-11-06T18:49:15.586Z,59.87
2022-11-06T18:51:44.225Z,59.66
2022-11-06T18:54:12.853Z,59.80
2022-11-06T18:56:41.107Z,59.83
2022-11-06T18:59:13.191Z,59.86
2022-11-06T19:01:43.351Z,59.78
2022-11-06T19:04:12.138Z,59.62
2022-11-06T19:06:41.147Z,59.69
2022-11-06T19:09:10.093Z,59.74
2022-11-06T19:11:39.590Z,59.69
2022-11-06T19:14:08.730Z,59.66
2022-11-06T19:16:36.672Z,59.86
2022-11-06T19:19:06.520Z,60.28
2022-11-06T19:21:35.041Z,60.23
2022-11-06T19:24:05.777Z,60.49
2022-11-06T19:26:36.175Z,60.76
2022-11-06T19:29:07.701Z,60.89
2022-11-06T19:31:37.471Z,61.17
2022-11-06T19:34:07.780Z,61.48
2022-11-06T19:36:35.698Z,61.48
2022-11-06T19:39:04.605Z,61.33
2022-11-06T19:41:33.478Z,61.73
2022-11-06T19:44:02.621Z,62.05
2022-11-06T19:46:35.589Z,62.11
2022-11-06T19:49:05.623Z,61.95
2022-11-06T19:51:37.878Z,62.20
2022-11-06T19:54:06.076Z,62.52
2022-11-06T19:56:34.254Z,62.46
2022-11-06T19:59:02.565Z,62.32
2022-11-06T20:01:30.704Z,62.24
2022-11-06T20:03:58.739Z,62.25
2022-11-06T20:06:27.629Z,62.51
2022-11-06T20:08:55.939Z,62.22
2022-11-06T20:11:24.094Z,62.16
2022-11-06T20:13:52.248Z,61.97
2022-11-06T20:16:21.319Z,61.99
2022-11-06T20:18:54.784Z,62.13
2022-11-06T20:21:27.850Z,62.27
2022-11-06T20:23:57.383Z,62.15
2022-11-06T20:26:26.084Z,62.18
2022-11-06T20:28:54.665Z,62.22
2022-11-06T20:31:23.327Z,62.42
2022-11-06T20:33:52.634Z,62.41
2022-11-06T20:36:24.780Z,62.70
2022-11-06T20:38:55.413Z,62.69
2022-11-06T20:41:23.617Z,62.65
2022-11-06T20:43:53.031Z,62.71
2022-11-06T20:46:21.056Z,62.46
2022-11-06T20:48:50.137Z,62.57
2022-11-06T20:51:20.044Z,62.37
2022-11-06T20:53:48.268Z,62.28
2022-11-06T20:56:18.189Z,62.10
2022-11-06T20:58:46.991Z,61.98
2022-11-06T21:01:24.724Z,61.76
2022-11-06T21:03:53.803Z,61.87
2022-11-06T21:06:24.362Z,62.04
2022-11-06T21:08:54.025Z,62.19
2022-11-06T21:11:23.636Z,62.20
2022-11-06T21:13:54.942Z,62.48
2022-11-06T21:16:25.903Z,62.34
2022-11-06T21:18:54.199Z,62.62
2022-11-06T21:21:27.273Z,62.44
2022-11-06T21:23:56.212Z,62.39
2022-11-06T21:26:25.683Z,62.31
2022-11-06T21:28:53.757Z,62.27
2022-11-06T21:31:25.292Z,62.35
2022-11-06T21:33:55.828Z,62.35
2022-11-06T21:36:26.441Z,62.52
2022-11-06T21:38:54.870Z,62.42
2022-11-06T21:41:24.650Z,62.51
2022-11-06T21:43:52.997Z,62.73
2022-11-06T21:46:22.136Z,62.45
2022-11-06T21:48:50.832Z,62.49
2022-11-06T21:51:28.532Z,62.51
2022-11-06T21:54:16.151Z,62.35
2022-11-06T21:56:47.255Z,62.26
2022-11-06T21:59:19.142Z,62.19
2022-11-06T22:01:47.294Z,62.39
2022-11-06T22:04:16.628Z,62.36
2022-11-06T22:06:44.667Z,62.26
2022-11-06T22:09:13.247Z,62.43
2022-11-06T22:11:43.573Z,62.33
2022-11-06T22:14:13.666Z,62.37
2022-11-06T22:16:44.041Z,62.36
2022-11-06T22:19:13.760Z,62.59
2022-11-06T22:21:42.277Z,62.47
2022-11-06T22:24:14.168Z,62.53
2022-11-06T22:26:42.264Z,62.77
2022-11-06T22:29:11.594Z,63.28
2022-11-06T22:31:39.765Z,63.22
2022-11-06T22:34:12.023Z,63.33
2022-11-06T22:36:40.610Z,63.55
2022-11-06T22:39:09.996Z,63.54
2022-11-06T22:41:39.011Z,63.60
2022-11-06T22:44:07.707Z,63.75
2022-11-06T22:46:36.172Z,64.07
2022-11-06T22:49:05.072Z,64.17
2022-11-06T22:51:35.080Z,64.27
2022-11-06T22:54:02.979Z,64.22
2022-11-06T22:56:32.049Z,64.05
2022-11-06T22:59:08.632Z,63.95
2022-11-06T23:01:42.289Z,64.06
2022-11-06T23:04:17.052Z,63.99
2022-11-06T23:06:45.303Z,64.11
2022-11-06T23:09:13.598Z,64.05
2022-11-06T23:11:41.525Z,64.04
2022-11-06T23:14:09.709Z,64.22
2022-11-06T23:17:12.942Z,64.27
2022-11-06T23:19:40.839Z,64.43
2022-11-06T23:22:27.317Z,64.18
2022-11-06T23:24:56.179Z,64.36
2022-11-06T23:27:24.646Z,64.12
2022-11-06T23:29:54.229Z,64.22
2022-11-06T23:32:22.312Z,64.33
2022-11-06T23:34:51.107Z,64.15
2022-11-06T23:37:18.975Z,64.09
2022-11-06T23:39:47.055Z,64.48
2022-11-06T23:42:18.878Z,64.51
2022-11-06T23:45:06.706Z,64.92
2022-11-06T23:47:35.493Z,64.95
2022-11-06T23:50:05.375Z,64.99
2022-11-06T23:52:34.229Z,65.14
2022-11-06T23:55:03.429Z,65.23
2022-11-06T23:57:31.387Z,65.23
2022-11-06T23:59:59.154Z,65.21
